KAVXKCRQ

Guest
Details From KAVX - Catalina
To KCRQ - Mc Clellan Palomar
Flight Number -
Tags generated
Created
Modified
Stats Distance 59 nm / 110 km
Max Altitude 3,300 ft / 1,006 m
Waypoints 3
Social Downloads 0
Likes 0
Share VATSIM

Download

Looking for another format? Having issues loading an existing format? Contact us
Advertisement - Login to hide

Notes

Basic altitude profile: - Ascent Rate: 2500ft/min - Ascent Speed: 250kts - Cruise Altitude: 35000ft - Cruise Speed: 420kts - Descent Rate: 1500ft/min - Descent Speed: 250kts Options: - Use NATs: yes - Use PACOTS: yes - Use low airways: yes - Use high airways: yes

Route

KAVX AVOLS KCRQ

ID Type Via Altitude (ft/m) Position (lat/lon) Dist (leg/tot) Name
O KAVX APT - 0 / 0 33.40466 / -118.41588 - / 0 nm Catalina
AVOLS FIX - 3,300 / 1,006 33.35179 / -118.24184 9 / 9 nm
O KCRQ APT - 0 / 0 33.12827 / -117.27997 50 / 59 nm Mc Clellan Palomar

Altitude Profile

Advertisement - Login to hide

KAVX

Details ICAO KAVX (AVX)
Name Catalina
Region United States
Timezone America/Los_Angeles (UTC-8.0)
Stats Elevation 1,602 ft / 488 m (AMSL)
Location 33.405000° -118.416000°
Runways 1
Magnetic Variation 11.815° E

METAR

KAVX 190951Z AUTO 00000KT 10SM CLR 13/03 A3018 RMK AO2 SLP213 T01330033

Decode

TAF

Not found

Departure Runways

ID Width Length Bearing (true/mag) Surface Threshold Overrun Markings Lighting
04 59 ft / 18 m 3,004 ft / 916 m 54.69° / 42.87° ASPHALT 0 ft / 0 m 0 ft / 0 m UK-APP EDGE THRESHOLD
22 59 ft / 18 m 3,004 ft / 916 m 234.69° / 222.88° ASPHALT 0 ft / 0 m 0 ft / 0 m APP EDGE THRESHOLD REIL-UNI

KCRQ

Details ICAO KCRQ (CLD)
Name Mc Clellan Palomar
Region United States
Timezone America/Los_Angeles (UTC-8.0)
Stats Elevation 331 ft / 101 m (AMSL)
Location 33.128300° -117.280000°
Runways 1
Magnetic Variation 11.531° E

METAR

KCRQ 190953Z AUTO 07004KT 6SM BR CLR 12/11 A3016 RMK AO2 SLP211 T01170106

Decode

TAF

KCRQ 190527Z 1906/2006 VRB04KT P6SM SCT006 SCT250 TEMPO 1908/1912 4SM BR FM191400 27005KT P6SM SCT250

Decode

Destination Runways

ID Width Length Bearing (true/mag) Surface Threshold Overrun Markings Lighting
06 151 ft / 46 m 4,889 ft / 1,490 m 79.07° / 67.54° ASPHALT 299 ft / 91 m 302 ft / 92 m APP EDGE THRESHOLD
24 151 ft / 46 m 4,889 ft / 1,490 m 259.08° / 247.55° ASPHALT 0 ft / 0 m 203 ft / 62 m PREC-APP EDGE THRESHOLD MALSR REIL-OMNI

Approach Navaids

Runway Type Ident Frequency Range Bearing (true/mag) Slope Elevation
24 MM MM - - 259.09° / 247.56 ° - 331 ft / 101 m (AMSL)
24 DME ICRQ 108.70 MHz 18 nm / 33 km - - 325 ft / 99 m (AMSL)
24 GS ICRQ 108.70 MHz 10 nm / 19 km 259.18° / 247.65 ° 3.20° 319 ft / 97 m (AMSL)
24 LOC-ILS ICRQ 108.70 MHz 18 nm / 33 km 259.07° / 247.54 ° - 325 ft / 99 m (AMSL)
24 OM OM - - 259.09° / 247.56 ° - 331 ft / 101 m (AMSL)